createdAt,value
2018-09-30T00:00:53.627Z,99.99
2018-09-30T00:01:53.631Z,99.99
2018-09-30T00:02:53.645Z,99.99
2018-09-30T00:03:53.680Z,99.99
2018-09-30T00:04:53.703Z,99.99
2018-09-30T00:05:53.727Z,99.99
2018-09-30T00:06:53.738Z,99.99
2018-09-30T00:07:53.746Z,99.99
2018-09-30T00:08:53.784Z,99.99
2018-09-30T00:09:53.786Z,99.99
2018-09-30T00:10:53.809Z,99.99
2018-09-30T00:11:53.825Z,99.99
2018-09-30T00:12:53.845Z,99.99
2018-09-30T00:13:53.865Z,99.99
2018-09-30T00:14:53.913Z,99.99
2018-09-30T00:15:53.895Z,99.99
2018-09-30T00:16:53.939Z,99.99
2018-09-30T00:17:53.957Z,99.99
2018-09-30T00:18:53.980Z,99.99
2018-09-30T00:19:54.000Z,99.99
2018-09-30T00:20:54.004Z,99.99
2018-09-30T00:21:54.024Z,99.99
2018-09-30T00:22:54.056Z,99.99
2018-09-30T00:23:54.078Z,99.99
2018-09-30T00:24:54.100Z,99.99
2018-09-30T00:25:54.107Z,99.99
2018-09-30T00:28:26.025Z,99.99
2018-09-30T00:29:25.774Z,99.99
2018-09-30T00:31:18.754Z,99.99
2018-09-30T00:32:18.767Z,99.99
2018-09-30T00:34:11.794Z,99.99
2018-09-30T00:35:11.758Z,99.99
2018-09-30T00:37:04.735Z,99.99
2018-09-30T00:38:04.750Z,99.99
2018-09-30T00:39:58.023Z,99.99
2018-09-30T00:40:57.740Z,99.99
2018-09-30T00:42:50.717Z,99.99
2018-09-30T00:43:50.732Z,99.99
2018-09-30T00:45:43.989Z,99.99
2018-09-30T00:46:43.722Z,99.99
2018-09-30T00:48:36.702Z,99.99
2018-09-30T00:49:36.730Z,99.99
2018-09-30T00:51:29.990Z,99.99
2018-09-30T00:52:29.709Z,99.99
2018-09-30T00:54:22.708Z,97.85
2018-09-30T00:55:22.724Z,95.42
2018-09-30T00:56:22.743Z,94.84
2018-09-30T00:57:22.770Z,92.79
2018-09-30T00:58:22.783Z,91.52
2018-09-30T00:59:22.803Z,91.38
2018-09-30T01:00:22.825Z,91.42
2018-09-30T01:01:22.849Z,92.60
2018-09-30T01:02:22.864Z,92.69
2018-09-30T01:03:22.885Z,91.67
2018-09-30T01:04:22.908Z,92.99
2018-09-30T01:05:22.984Z,90.45
2018-09-30T01:06:22.999Z,91.42
2018-09-30T01:07:23.021Z,90.26
2018-09-30T01:08:23.043Z,90.06
2018-09-30T01:09:23.078Z,91.08
2018-09-30T01:10:23.076Z,90.30
2018-09-30T01:11:23.117Z,87.09
2018-09-30T01:12:23.139Z,88.51
2018-09-30T01:13:23.144Z,88.70
2018-09-30T01:14:23.183Z,88.75
2018-09-30T01:15:23.211Z,89.33
2018-09-30T01:16:23.207Z,89.81
2018-09-30T01:17:23.226Z,90.20
2018-09-30T01:18:23.245Z,89.91
2018-09-30T01:19:23.256Z,87.57
2018-09-30T01:20:23.300Z,86.99
2018-09-30T01:21:23.310Z,86.80
2018-09-30T01:22:23.330Z,86.80
2018-09-30T01:23:23.347Z,84.75
2018-09-30T01:24:23.369Z,86.31
2018-09-30T01:25:23.402Z,85.92
2018-09-30T01:26:23.436Z,86.31
2018-09-30T01:27:23.431Z,85.92
2018-09-30T01:28:23.495Z,85.33
2018-09-30T01:29:23.475Z,84.27
2018-09-30T01:30:23.505Z,85.72
2018-09-30T01:31:23.529Z,85.82
2018-09-30T01:32:24.250Z,86.99
2018-09-30T01:33:23.570Z,88.75
2018-09-30T01:34:23.577Z,89.04
2018-09-30T01:35:23.594Z,85.04
2018-09-30T01:36:23.636Z,85.82
2018-09-30T01:37:23.643Z,86.51
2018-09-30T01:38:23.655Z,85.82
2018-09-30T01:39:23.698Z,85.43
2018-09-30T01:40:23.723Z,86.60
2018-09-30T01:41:23.736Z,83.97
2018-09-30T01:42:23.741Z,81.73
2018-09-30T01:43:23.775Z,81.44
2018-09-30T01:44:23.796Z,82.90
2018-09-30T01:45:23.802Z,83.19
2018-09-30T01:46:23.821Z,81.83
2018-09-30T01:47:23.858Z,82.03
2018-09-30T01:48:23.879Z,83.97
2018-09-30T01:49:23.898Z,84.17
2018-09-30T01:50:23.905Z,84.84
2018-09-30T01:51:23.945Z,84.75
2018-09-30T01:52:23.945Z,81.44
2018-09-30T01:53:23.984Z,81.73
2018-09-30T01:54:23.988Z,82.22
2018-09-30T01:55:24.010Z,82.12
2018-09-30T01:56:24.029Z,81.24
2018-09-30T01:57:24.048Z,80.85
2018-09-30T01:58:24.059Z,81.54
2018-09-30T01:59:24.090Z,81.34
2018-09-30T02:00:24.114Z,82.12
2018-09-30T02:01:24.988Z,82.41
2018-09-30T02:02:24.158Z,81.44
2018-09-30T02:03:24.193Z,81.34
2018-09-30T02:04:24.197Z,80.70
2018-09-30T02:05:24.214Z,80.60
2018-09-30T02:06:24.251Z,78.71
2018-09-30T02:07:24.255Z,79.92
2018-09-30T02:08:24.275Z,78.45
2018-09-30T02:09:24.294Z,78.65
2018-09-30T02:10:24.333Z,79.14
2018-09-30T02:11:24.352Z,79.14
2018-09-30T02:12:24.394Z,79.14
2018-09-30T02:13:24.378Z,80.99
2018-09-30T02:14:24.397Z,79.82
2018-09-30T02:15:24.436Z,80.51
2018-09-30T02:16:24.460Z,77.68
2018-09-30T02:17:24.459Z,79.82
2018-09-30T02:18:24.497Z,80.31
2018-09-30T02:19:24.523Z,80.80
2018-09-30T02:20:24.535Z,79.72
2018-09-30T02:21:24.544Z,77.97
2018-09-30T02:22:24.565Z,78.36
2018-09-30T02:23:24.583Z,77.97
2018-09-30T02:24:24.621Z,77.29
2018-09-30T02:25:24.642Z,76.90
2018-09-30T02:26:24.662Z,77.78
2018-09-30T02:27:24.658Z,77.81
2018-09-30T02:28:24.706Z,77.91
2018-09-30T02:29:24.728Z,76.06
2018-09-30T02:30:24.731Z,77.62
2018-09-30T02:31:24.764Z,76.51
2018-09-30T02:32:24.795Z,76.15
2018-09-30T02:33:25.504Z,76.93
2018-09-30T02:34:24.811Z,78.01
2018-09-30T02:35:24.844Z,78.20
2018-09-30T02:36:24.869Z,77.23
2018-09-30T02:37:24.868Z,76.15
2018-09-30T02:38:24.912Z,76.35
2018-09-30T02:39:24.919Z,76.25
2018-09-30T02:40:24.958Z,76.06
2018-09-30T02:41:24.962Z,77.13
2018-09-30T02:42:24.994Z,75.96
2018-09-30T02:43:25.015Z,76.84
2018-09-30T02:44:25.039Z,76.06
2018-09-30T02:45:25.033Z,77.33
2018-09-30T02:46:25.064Z,77.72
2018-09-30T02:47:25.083Z,77.52
2018-09-30T02:48:25.108Z,77.42
2018-09-30T02:49:25.167Z,78.79
2018-09-30T02:50:25.163Z,75.96
2018-09-30T02:51:25.167Z,76.06
2018-09-30T02:52:25.192Z,77.13
2018-09-30T02:53:25.205Z,78.59
2018-09-30T02:54:25.260Z,77.91
2018-09-30T02:55:25.255Z,76.45
2018-09-30T02:56:25.303Z,77.03
2018-09-30T02:57:25.308Z,77.52
2018-09-30T02:58:25.334Z,77.13
2018-09-30T02:59:25.362Z,77.62
2018-09-30T03:00:25.358Z,78.01
2018-09-30T03:01:25.389Z,77.62
2018-09-30T03:02:25.412Z,76.93
2018-09-30T03:03:25.419Z,78.69
2018-09-30T03:04:25.440Z,78.99
2018-09-30T03:05:25.463Z,76.87
2018-09-30T03:06:25.480Z,77.56
2018-09-30T03:07:25.501Z,76.58
2018-09-30T03:08:25.526Z,76.29
2018-09-30T03:09:25.562Z,75.47
2018-09-30T03:10:25.565Z,76.06
2018-09-30T03:11:25.585Z,76.29
2018-09-30T03:12:25.624Z,76.48
2018-09-30T03:13:25.619Z,76.29
2018-09-30T03:14:25.649Z,76.19
2018-09-30T03:15:25.691Z,76.29
2018-09-30T03:16:25.702Z,75.90
2018-09-30T03:17:25.712Z,75.21
2018-09-30T03:18:25.732Z,75.51
2018-09-30T03:19:25.773Z,75.21
2018-09-30T03:20:25.793Z,75.51
2018-09-30T03:21:25.796Z,76.58
2018-09-30T03:22:25.818Z,75.90
2018-09-30T03:23:25.838Z,75.51
2018-09-30T03:24:25.871Z,76.58
2018-09-30T03:25:25.907Z,77.75
2018-09-30T03:26:25.901Z,78.44
2018-09-30T03:27:25.921Z,78.53
2018-09-30T03:28:25.951Z,78.05
2018-09-30T03:29:25.977Z,80.49
2018-09-30T03:30:25.985Z,81.56
2018-09-30T03:31:26.024Z,79.32
2018-09-30T03:32:26.035Z,78.08
2018-09-30T03:33:26.053Z,77.20
2018-09-30T03:34:26.071Z,76.72
2018-09-30T03:35:26.100Z,76.03
2018-09-30T03:36:26.131Z,77.20
2018-09-30T03:37:26.136Z,78.08
2018-09-30T03:38:26.167Z,78.61
2018-09-30T03:39:26.190Z,76.32
2018-09-30T03:40:26.196Z,74.34
2018-09-30T03:41:26.237Z,74.93
2018-09-30T03:42:26.229Z,76.39
2018-09-30T03:43:26.265Z,81.07
2018-09-30T03:44:26.283Z,79.22
2018-09-30T03:45:26.315Z,78.05
2018-09-30T03:46:26.347Z,77.17
2018-09-30T03:47:26.348Z,75.21
2018-09-30T03:48:26.382Z,76.29
2018-09-30T03:49:26.392Z,76.68
2018-09-30T03:50:26.410Z,76.58
2018-09-30T03:51:26.442Z,76.19
2018-09-30T03:52:26.442Z,76.23
2018-09-30T03:53:26.485Z,76.29
2018-09-30T03:54:26.501Z,75.12
2018-09-30T03:55:26.534Z,75.51
2018-09-30T03:56:26.551Z,77.66
2018-09-30T03:57:26.560Z,76.91
2018-09-30T03:58:26.606Z,76.42
2018-09-30T03:59:26.619Z,76.23
2018-09-30T04:00:26.632Z,76.23
2018-09-30T04:01:26.665Z,75.05
2018-09-30T04:02:26.668Z,75.29
2018-09-30T04:03:26.677Z,74.38
2018-09-30T04:04:26.710Z,73.83
2018-09-30T04:05:26.732Z,73.93
2018-09-30T04:06:26.764Z,72.95
2018-09-30T04:07:26.805Z,74.12
2018-09-30T04:08:26.786Z,74.32
2018-09-30T04:09:26.852Z,73.34
2018-09-30T04:10:26.844Z,73.34
2018-09-30T04:11:26.860Z,74.22
2018-09-30T04:12:26.892Z,74.41
2018-09-30T04:13:26.923Z,74.51
2018-09-30T04:14:26.943Z,74.51
2018-09-30T04:15:26.947Z,74.32
2018-09-30T04:16:26.969Z,74.22
2018-09-30T04:17:27.071Z,75.20
2018-09-30T04:18:27.029Z,75.29
2018-09-30T04:19:27.030Z,74.32
2018-09-30T04:20:27.058Z,73.37
2018-09-30T04:21:27.093Z,73.05
2018-09-30T04:22:27.104Z,73.34
2018-09-30T04:23:27.135Z,72.66
2018-09-30T04:24:27.141Z,72.95
2018-09-30T04:25:27.158Z,72.17
2018-09-30T04:26:27.198Z,73.05
2018-09-30T04:27:27.233Z,75.49
2018-09-30T04:28:27.242Z,73.24
2018-09-30T04:29:27.289Z,74.38
2018-09-30T04:30:27.271Z,73.99
2018-09-30T04:31:27.308Z,73.50
2018-09-30T04:32:27.305Z,74.28
2018-09-30T04:33:27.335Z,74.38
2018-09-30T04:34:27.369Z,74.18
2018-09-30T04:35:27.367Z,74.28
2018-09-30T04:36:27.400Z,74.48
2018-09-30T04:37:27.440Z,77.20
2018-09-30T04:38:27.447Z,76.32
2018-09-30T04:39:27.467Z,74.96
2018-09-30T04:40:27.500Z,77.15
2018-09-30T04:41:27.522Z,74.51
2018-09-30T04:42:27.528Z,72.85
2018-09-30T04:43:27.568Z,74.41
2018-09-30T04:44:27.581Z,75.00
2018-09-30T04:45:27.598Z,74.12
2018-09-30T04:46:27.613Z,75.78
2018-09-30T04:47:27.627Z,75.39
2018-09-30T04:48:27.672Z,74.12
2018-09-30T04:49:27.677Z,73.34
2018-09-30T04:50:27.712Z,72.85
2018-09-30T04:51:27.742Z,73.57
2018-09-30T04:52:27.743Z,73.96
2018-09-30T04:53:27.784Z,72.88
2018-09-30T04:54:27.780Z,72.69
2018-09-30T04:55:27.822Z,70.64
2018-09-30T04:56:27.831Z,71.48
2018-09-30T04:57:27.866Z,72.95
2018-09-30T04:58:27.893Z,72.66
2018-09-30T04:59:27.892Z,72.17
2018-09-30T05:00:27.931Z,72.10
2018-09-30T05:01:27.944Z,71.42
2018-09-30T05:02:27.970Z,71.61
2018-09-30T05:03:27.981Z,72.88
2018-09-30T05:04:28.001Z,72.98
2018-09-30T05:05:28.024Z,72.39
2018-09-30T05:06:28.045Z,73.34
2018-09-30T05:07:28.071Z,72.69
2018-09-30T05:08:28.116Z,72.20
2018-09-30T05:09:28.110Z,72.20
2018-09-30T05:10:28.143Z,72.98
2018-09-30T05:11:28.156Z,72.59
2018-09-30T05:12:28.166Z,76.50
2018-09-30T05:13:28.217Z,75.23
2018-09-30T05:14:28.219Z,74.05
2018-09-30T05:15:28.231Z,75.23
2018-09-30T05:16:28.326Z,74.44
2018-09-30T05:17:28.277Z,74.25
2018-09-30T05:18:28.305Z,75.23
2018-09-30T05:19:28.326Z,73.57
2018-09-30T05:20:28.342Z,73.41
2018-09-30T05:21:28.406Z,72.39
2018-09-30T05:22:28.404Z,72.14
2018-09-30T05:23:28.412Z,72.04
2018-09-30T05:24:28.444Z,72.43
2018-09-30T05:25:28.516Z,72.63
2018-09-30T05:26:28.497Z,74.19
2018-09-30T05:27:28.518Z,73.02
2018-09-30T05:28:28.525Z,72.63
2018-09-30T05:29:28.547Z,72.82
2018-09-30T05:30:28.590Z,72.72
2018-09-30T05:31:28.585Z,72.53
2018-09-30T05:32:28.625Z,72.04
2018-09-30T05:33:28.646Z,72.24
2018-09-30T05:34:28.651Z,73.60
2018-09-30T05:35:28.679Z,72.66
2018-09-30T05:36:28.715Z,73.02
2018-09-30T05:37:28.739Z,73.02
2018-09-30T05:38:29.399Z,71.75
2018-09-30T05:39:28.776Z,72.63
2018-09-30T05:40:28.798Z,72.33
2018-09-30T05:41:28.808Z,71.84
2018-09-30T05:42:28.866Z,71.65
2018-09-30T05:43:28.870Z,71.98
2018-09-30T05:44:28.901Z,71.84
2018-09-30T05:45:29.301Z,71.10
2018-09-30T05:46:28.918Z,71.75
2018-09-30T05:47:28.930Z,71.16
2018-09-30T05:48:28.976Z,72.33
2018-09-30T05:49:28.986Z,73.60
2018-09-30T05:50:29.028Z,72.14
2018-09-30T05:51:29.083Z,72.14
2018-09-30T05:52:29.069Z,73.41
2018-09-30T05:53:29.091Z,72.82
2018-09-30T05:54:29.111Z,73.41
2018-09-30T05:55:29.117Z,73.50
2018-09-30T05:56:29.141Z,73.05
2018-09-30T05:57:29.186Z,72.14
2018-09-30T05:58:29.187Z,71.84
2018-09-30T05:59:29.205Z,72.14
2018-09-30T06:00:29.227Z,72.63
2018-09-30T06:01:29.322Z,73.05
2018-09-30T06:02:29.271Z,74.32
2018-09-30T06:03:29.293Z,73.64
2018-09-30T06:04:29.338Z,72.47
2018-09-30T06:05:29.327Z,71.72
2018-09-30T06:06:29.375Z,72.11
2018-09-30T06:07:29.378Z,72.50
2018-09-30T06:08:29.405Z,72.53
2018-09-30T06:09:29.497Z,75.04
2018-09-30T06:10:29.449Z,72.89
2018-09-30T06:11:29.489Z,72.11
2018-09-30T06:12:29.494Z,72.89
2018-09-30T06:13:29.525Z,72.41
2018-09-30T06:14:29.527Z,73.09
2018-09-30T06:15:29.570Z,71.78
2018-09-30T06:16:29.599Z,72.66
2018-09-30T06:17:29.605Z,73.64
2018-09-30T06:18:29.627Z,73.19
2018-09-30T06:19:29.663Z,72.76
2018-09-30T06:20:29.674Z,73.64
2018-09-30T06:21:29.719Z,73.09
2018-09-30T06:22:29.740Z,72.96
2018-09-30T06:23:29.730Z,72.56
2018-09-30T06:24:29.795Z,72.41
2018-09-30T06:25:29.776Z,72.21
2018-09-30T06:26:29.813Z,72.31
2018-09-30T06:27:29.828Z,72.31
2018-09-30T06:28:29.849Z,71.91
2018-09-30T06:29:29.893Z,72.05
2018-09-30T06:30:29.913Z,71.03
2018-09-30T06:31:29.972Z,72.56
2018-09-30T06:32:29.941Z,72.41
2018-09-30T06:33:29.953Z,71.23
2018-09-30T06:34:29.997Z,72.41
2018-09-30T06:35:30.009Z,71.81
2018-09-30T06:36:30.029Z,71.10
2018-09-30T06:37:30.055Z,70.90
2018-09-30T06:38:30.065Z,72.17
2018-09-30T06:39:30.113Z,72.37
2018-09-30T06:40:30.186Z,72.31
2018-09-30T06:41:30.145Z,72.31
2018-09-30T06:42:30.164Z,72.50
2018-09-30T06:43:30.199Z,73.52
2018-09-30T06:44:30.202Z,72.63
2018-09-30T06:45:30.301Z,71.52
2018-09-30T06:46:30.255Z,70.54
2018-09-30T06:47:30.277Z,71.62
2018-09-30T06:48:30.316Z,70.06
2018-09-30T06:49:30.334Z,71.62
2018-09-30T06:50:30.391Z,71.81
2018-09-30T06:51:30.409Z,71.95
2018-09-30T06:52:30.438Z,71.95
2018-09-30T06:53:30.423Z,71.75
2018-09-30T06:54:30.453Z,72.05
2018-09-30T06:55:30.462Z,71.36
2018-09-30T06:56:30.497Z,70.87
2018-09-30T06:57:30.509Z,70.54
2018-09-30T06:58:30.526Z,70.64
2018-09-30T06:59:30.547Z,70.45
2018-09-30T07:00:30.586Z,71.23
2018-09-30T07:01:30.606Z,70.87
2018-09-30T07:02:30.613Z,71.03
2018-09-30T07:03:30.661Z,72.11
2018-09-30T07:04:30.647Z,72.99
2018-09-30T07:05:30.698Z,72.14
2018-09-30T07:06:30.704Z,72.11
2018-09-30T07:07:30.744Z,72.63
2018-09-30T07:08:30.765Z,72.41
2018-09-30T07:09:30.787Z,71.81
2018-09-30T07:10:30.809Z,72.05
2018-09-30T07:11:30.830Z,72.31
2018-09-30T07:12:30.851Z,73.77
2018-09-30T07:13:30.876Z,73.77
2018-09-30T07:14:30.887Z,73.48
2018-09-30T07:15:30.905Z,72.50
2018-09-30T07:16:30.957Z,72.02
2018-09-30T07:17:30.954Z,71.69
2018-09-30T07:18:30.972Z,74.42
2018-09-30T07:19:30.995Z,75.40
2018-09-30T07:20:31.009Z,75.46
2018-09-30T07:21:31.037Z,75.27
2018-09-30T07:22:31.122Z,75.50
2018-09-30T07:23:31.086Z,76.48
2018-09-30T07:24:31.095Z,75.70
2018-09-30T07:25:31.132Z,75.31
2018-09-30T07:26:31.150Z,73.44
2018-09-30T07:27:31.166Z,73.21
2018-09-30T07:28:31.215Z,72.66
2018-09-30T07:29:31.255Z,72.76
2018-09-30T07:30:31.240Z,72.66
2018-09-30T07:31:31.262Z,72.76
2018-09-30T07:32:31.297Z,72.86
2018-09-30T07:33:31.330Z,73.50
2018-09-30T07:34:31.327Z,74.09
2018-09-30T07:35:31.350Z,74.48
2018-09-30T07:36:31.392Z,74.19
2018-09-30T07:37:31.388Z,74.29
2018-09-30T07:38:31.437Z,75.27
2018-09-30T07:39:31.469Z,74.68
2018-09-30T07:40:31.462Z,73.60
2018-09-30T07:41:31.521Z,74.19
2018-09-30T07:42:31.523Z,74.62
2018-09-30T07:43:31.531Z,75.21
2018-09-30T07:44:31.571Z,76.09
2018-09-30T07:45:31.574Z,77.36
2018-09-30T07:46:31.654Z,74.38
2018-09-30T07:47:31.654Z,75.56
2018-09-30T07:48:31.656Z,76.34
2018-09-30T07:49:31.653Z,78.14
2018-09-30T07:50:31.682Z,77.42
2018-09-30T07:51:31.708Z,74.29
2018-09-30T07:52:31.761Z,74.22
2018-09-30T07:53:31.787Z,75.27
2018-09-30T07:54:31.771Z,75.46
2018-09-30T07:55:31.810Z,75.46
2018-09-30T07:56:31.822Z,76.34
2018-09-30T07:57:31.827Z,75.66
2018-09-30T07:58:31.865Z,75.21
2018-09-30T07:59:31.882Z,75.40
2018-09-30T08:00:31.918Z,76.09
2018-09-30T08:01:31.917Z,75.99
2018-09-30T08:02:31.951Z,75.50
2018-09-30T08:03:31.990Z,76.48
2018-09-30T08:04:31.991Z,73.74
2018-09-30T08:05:32.029Z,74.42
2018-09-30T08:06:32.097Z,74.32
2018-09-30T08:07:32.060Z,73.48
2018-09-30T08:08:32.080Z,70.84
2018-09-30T08:09:32.192Z,72.02
2018-09-30T08:10:32.142Z,70.84
2018-09-30T08:11:32.146Z,70.84
2018-09-30T08:12:32.169Z,72.50
2018-09-30T08:13:32.211Z,71.81
2018-09-30T08:14:32.214Z,72.50
2018-09-30T08:15:32.249Z,72.21
2018-09-30T08:16:32.329Z,71.95
2018-09-30T08:17:32.293Z,72.53
2018-09-30T08:18:32.309Z,73.68
2018-09-30T08:19:32.338Z,72.41
2018-09-30T08:20:32.365Z,72.31
2018-09-30T08:21:32.388Z,73.09
2018-09-30T08:22:32.411Z,72.53
2018-09-30T08:23:32.453Z,72.31
2018-09-30T08:24:32.511Z,72.70
2018-09-30T08:25:32.479Z,72.89
2018-09-30T08:26:32.506Z,72.70
2018-09-30T08:27:32.496Z,72.99
2018-09-30T08:28:32.545Z,73.48
2018-09-30T08:29:32.552Z,73.68
2018-09-30T08:30:32.578Z,73.48
2018-09-30T08:31:32.611Z,73.68
2018-09-30T08:32:32.608Z,74.46
2018-09-30T08:33:32.631Z,74.36
2018-09-30T08:34:32.662Z,74.07
2018-09-30T08:35:32.736Z,74.16
2018-09-30T08:36:32.724Z,74.46
2018-09-30T08:37:32.753Z,73.68
2018-09-30T08:38:32.740Z,73.68
2018-09-30T08:39:32.799Z,73.48
2018-09-30T08:40:32.796Z,73.09
2018-09-30T08:41:32.819Z,73.48
2018-09-30T08:42:32.857Z,73.87
2018-09-30T08:43:32.880Z,73.68
2018-09-30T08:44:32.884Z,74.71
2018-09-30T08:45:32.897Z,74.52
2018-09-30T08:46:32.954Z,74.22
2018-09-30T08:47:33.010Z,74.91
2018-09-30T08:48:32.987Z,74.32
2018-09-30T08:49:33.017Z,74.75
2018-09-30T08:50:33.019Z,75.31
2018-09-30T08:51:33.039Z,74.91
2018-09-30T08:52:33.079Z,75.31
2018-09-30T08:53:33.099Z,74.42
2018-09-30T08:54:33.153Z,75.21
2018-09-30T08:55:33.145Z,75.60
2018-09-30T08:56:33.165Z,76.77
2018-09-30T08:57:33.165Z,77.55
2018-09-30T08:58:33.195Z,76.77
2018-09-30T08:59:33.218Z,75.79
2018-09-30T09:00:33.258Z,75.79
2018-09-30T09:01:33.256Z,75.99
2018-09-30T09:02:33.310Z,76.87
2018-09-30T09:03:33.311Z,76.28
2018-09-30T09:04:33.328Z,75.79
2018-09-30T09:05:33.370Z,75.50
2018-09-30T09:06:33.364Z,77.22
2018-09-30T09:07:33.387Z,77.26
2018-09-30T09:08:33.418Z,77.71
2018-09-30T09:10:33.963Z,76.48
2018-09-30T09:11:33.992Z,75.66
2018-09-30T09:12:34.029Z,74.09
2018-09-30T09:13:34.021Z,74.29
2018-09-30T09:14:34.039Z,75.07
2018-09-30T09:15:34.168Z,75.37
2018-09-30T09:16:35.115Z,75.11
2018-09-30T09:17:34.147Z,75.46
2018-09-30T09:18:34.208Z,74.91
2018-09-30T09:19:34.153Z,75.01
2018-09-30T09:20:34.209Z,74.42
2018-09-30T09:21:34.183Z,74.91
2018-09-30T09:22:35.332Z,75.40
2018-09-30T09:23:34.245Z,76.48
2018-09-30T09:24:34.262Z,76.77
2018-09-30T09:25:34.313Z,76.77
2018-09-30T09:26:34.343Z,77.26
2018-09-30T09:27:35.085Z,78.23
2018-09-30T09:28:35.415Z,78.92
2018-09-30T09:29:34.356Z,78.63
2018-09-30T09:30:34.435Z,77.84
2018-09-30T09:31:34.489Z,77.29
2018-09-30T09:32:34.444Z,76.42
2018-09-30T09:33:34.458Z,76.77
2018-09-30T09:34:35.520Z,75.63
2018-09-30T09:35:34.536Z,75.93
2018-09-30T09:36:34.512Z,75.63
2018-09-30T09:37:34.549Z,74.46
2018-09-30T09:38:34.645Z,74.42
2018-09-30T09:39:34.615Z,75.63
2018-09-30T09:40:35.633Z,75.83
2018-09-30T09:41:34.653Z,75.93
2018-09-30T09:42:34.691Z,76.71
2018-09-30T09:43:34.707Z,76.90
2018-09-30T09:44:34.690Z,75.54
2018-09-30T09:45:34.765Z,75.63
2018-09-30T09:46:35.764Z,75.31
2018-09-30T09:47:34.807Z,75.04
2018-09-30T09:48:34.876Z,74.32
2018-09-30T09:49:34.837Z,73.97
2018-09-30T09:50:34.878Z,74.22
2018-09-30T09:51:34.840Z,74.22
2018-09-30T09:52:35.895Z,73.83
2018-09-30T09:53:34.908Z,75.21
2018-09-30T09:54:34.929Z,74.52
2018-09-30T09:55:34.949Z,73.74
2018-09-30T09:56:34.961Z,73.93
2018-09-30T09:57:34.976Z,73.83
2018-09-30T09:58:36.030Z,74.13
2018-09-30T09:59:35.050Z,75.21
2018-09-30T10:00:35.089Z,75.21
2018-09-30T10:01:35.111Z,75.50
2018-09-30T10:02:35.138Z,75.85
2018-09-30T10:03:35.134Z,75.50
2018-09-30T10:04:36.196Z,75.17
2018-09-30T10:05:35.154Z,74.97
2018-09-30T10:06:35.207Z,75.46
2018-09-30T10:07:35.245Z,76.05
2018-09-30T10:08:35.274Z,75.76
2018-09-30T10:09:35.262Z,75.46
2018-09-30T10:10:36.332Z,74.87
2018-09-30T10:11:35.332Z,75.07
2018-09-30T10:12:35.323Z,75.27
2018-09-30T10:13:35.352Z,75.27
2018-09-30T10:14:35.408Z,75.17
2018-09-30T10:15:35.440Z,75.76
2018-09-30T10:16:37.184Z,75.46
2018-09-30T10:17:35.481Z,75.66
2018-09-30T10:18:35.459Z,75.27
2018-09-30T10:19:35.608Z,75.66
2018-09-30T10:20:35.540Z,75.66
2018-09-30T10:21:35.561Z,75.76
2018-09-30T10:22:36.584Z,75.43
2018-09-30T10:23:35.568Z,75.43
2018-09-30T10:24:35.594Z,75.62
2018-09-30T10:25:35.644Z,75.62
2018-09-30T10:26:35.642Z,75.72
2018-09-30T10:27:35.697Z,75.23
2018-09-30T10:28:36.716Z,76.70
2018-09-30T10:29:35.729Z,76.21
2018-09-30T10:30:35.753Z,75.23
2018-09-30T10:31:36.356Z,75.72
2018-09-30T10:32:35.817Z,75.52
2018-09-30T10:33:35.825Z,75.33
2018-09-30T10:34:36.826Z,75.39
2018-09-30T10:35:35.874Z,75.62
2018-09-30T10:36:36.636Z,75.62
2018-09-30T10:37:36.869Z,76.11
2018-09-30T10:38:36.031Z,76.76
2018-09-30T10:39:35.958Z,76.66
2018-09-30T10:40:36.950Z,77.34
2018-09-30T10:41:35.964Z,77.34
2018-09-30T10:42:35.995Z,77.83
2018-09-30T10:43:35.983Z,77.64
2018-09-30T10:44:36.050Z,77.73
2018-09-30T10:45:36.047Z,78.13
2018-09-30T10:46:37.104Z,78.03
2018-09-30T10:47:36.124Z,78.61
2018-09-30T10:48:36.114Z,79.49
2018-09-30T10:49:36.137Z,78.71
2018-09-30T10:50:36.156Z,79.10
2018-09-30T10:51:36.185Z,79.39
2018-09-30T10:52:37.192Z,79.10
2018-09-30T10:53:36.252Z,78.32
2018-09-30T10:54:36.276Z,79.10
2018-09-30T10:55:36.262Z,78.71
2018-09-30T10:56:37.140Z,79.10
2018-09-30T10:57:36.330Z,79.10
2018-09-30T10:58:37.337Z,79.49
2018-09-30T10:59:36.351Z,80.47
2018-09-30T11:00:36.375Z,79.30
2018-09-30T11:01:36.432Z,79.30
2018-09-30T11:02:36.407Z,78.91
2018-09-30T11:03:36.514Z,79.30
2018-09-30T11:04:37.507Z,78.86
2018-09-30T11:05:36.504Z,79.39
2018-09-30T11:06:36.510Z,78.81
2018-09-30T11:07:36.546Z,79.10
2018-09-30T11:08:37.142Z,80.08
2018-09-30T11:09:36.637Z,80.86
2018-09-30T11:10:37.634Z,80.86
2018-09-30T11:11:36.614Z,79.69
2018-09-30T11:12:36.625Z,80.18
2018-09-30T11:13:36.690Z,80.27
2018-09-30T11:14:36.666Z,80.86
2018-09-30T11:15:37.636Z,80.91
2018-09-30T11:16:37.729Z,81.40
2018-09-30T11:17:36.815Z,81.60
2018-09-30T11:18:36.789Z,81.93
2018-09-30T11:19:36.822Z,81.50
2018-09-30T11:20:36.821Z,82.18
2018-09-30T11:21:36.857Z,81.40
2018-09-30T11:22:37.915Z,81.60
2018-09-30T11:23:36.865Z,82.18
2018-09-30T11:24:36.914Z,83.59
2018-09-30T11:25:36.946Z,83.84
2018-09-30T11:26:36.926Z,83.59
2018-09-30T11:27:36.951Z,83.75
2018-09-30T11:28:37.989Z,83.55
2018-09-30T11:29:37.016Z,84.63
2018-09-30T11:30:37.025Z,85.21
2018-09-30T11:31:37.035Z,85.02
2018-09-30T11:32:37.072Z,84.92
2018-09-30T11:33:37.085Z,85.16
2018-09-30T11:34:38.118Z,85.02
2018-09-30T11:35:37.120Z,84.96
2018-09-30T11:36:37.155Z,84.92
2018-09-30T11:37:37.205Z,85.02
2018-09-30T11:38:37.195Z,85.55
2018-09-30T11:39:37.265Z,85.89
2018-09-30T11:40:38.240Z,85.80
2018-09-30T11:41:37.233Z,85.41
2018-09-30T11:42:37.353Z,85.89
2018-09-30T11:43:37.329Z,86.58
2018-09-30T11:44:37.330Z,87.16
2018-09-30T11:45:37.352Z,87.46
2018-09-30T11:46:38.359Z,86.58
2018-09-30T11:47:37.361Z,86.58
2018-09-30T11:48:37.435Z,86.38
2018-09-30T11:49:37.429Z,86.29
2018-09-30T11:50:37.452Z,86.97
2018-09-30T11:51:37.471Z,85.99
2018-09-30T11:52:38.559Z,86.38
2018-09-30T11:53:37.508Z,86.19
2018-09-30T11:54:37.534Z,86.48
2018-09-30T11:55:37.550Z,86.87
2018-09-30T11:56:37.578Z,88.04
2018-09-30T11:57:37.568Z,87.36
2018-09-30T11:58:38.634Z,87.07
2018-09-30T11:59:37.616Z,86.58
2018-09-30T12:00:37.685Z,86.29
2018-09-30T12:01:37.685Z,86.29
2018-09-30T12:02:37.699Z,86.97
2018-09-30T12:03:37.781Z,87.07
2018-09-30T12:04:38.767Z,87.46
2018-09-30T12:05:37.776Z,87.26
2018-09-30T12:06:37.782Z,87.46
2018-09-30T12:07:37.833Z,88.04
2018-09-30T12:09:55.927Z,88.43
2018-09-30T12:11:00.349Z,88.29
2018-09-30T12:11:56.282Z,88.09
2018-09-30T12:13:03.331Z,88.19
2018-09-30T12:13:54.935Z,88.39
2018-09-30T12:14:58.954Z,88.48
2018-09-30T12:16:03.959Z,88.29
2018-09-30T12:18:56.445Z,88.29
2018-09-30T12:23:00.736Z,89.17
2018-09-30T12:24:02.679Z,89.17
2018-09-30T12:24:57.945Z,89.26
2018-09-30T12:26:04.430Z,88.97
2018-09-30T12:26:59.441Z,89.26
2018-09-30T12:29:04.857Z,88.58
2018-09-30T12:31:03.136Z,90.05
2018-09-30T12:32:03.455Z,89.85
2018-09-30T12:33:03.145Z,91.02
2018-09-30T12:33:57.631Z,91.41
2018-09-30T12:34:58.959Z,91.02
2018-09-30T12:35:57.934Z,91.31
2018-09-30T12:36:56.935Z,91.90
2018-09-30T12:37:55.176Z,92.19
2018-09-30T12:39:03.070Z,92.10
2018-09-30T12:39:55.296Z,92.39
2018-09-30T12:40:54.408Z,92.68
2018-09-30T12:42:05.757Z,94.04
2018-09-30T12:42:58.486Z,93.95
2018-09-30T12:43:57.169Z,93.46
2018-09-30T12:45:05.460Z,93.85
2018-09-30T12:46:01.953Z,93.66
2018-09-30T12:48:03.456Z,93.27
2018-09-30T12:49:04.260Z,92.88
2018-09-30T12:49:55.049Z,93.51
2018-09-30T12:50:54.436Z,93.12
2018-09-30T12:52:00.465Z,93.07
2018-09-30T12:52:55.880Z,93.07
2018-09-30T12:54:01.928Z,93.12
2018-09-30T12:55:05.924Z,94.04
2018-09-30T12:55:54.463Z,94.04
2018-09-30T12:58:59.805Z,93.02
2018-09-30T13:00:00.661Z,93.80
2018-09-30T13:02:08.857Z,94.39
2018-09-30T13:03:59.931Z,94.49
2018-09-30T13:04:58.472Z,94.39
2018-09-30T13:06:01.391Z,95.17
2018-09-30T13:06:57.041Z,95.66
2018-09-30T13:08:03.243Z,95.17
2018-09-30T13:08:59.155Z,95.37
2018-09-30T13:10:04.789Z,95.66
2018-09-30T13:10:54.038Z,95.07
2018-09-30T13:11:54.350Z,94.98
2018-09-30T13:13:04.397Z,95.85
2018-09-30T13:14:58.970Z,94.98
2018-09-30T13:16:58.969Z,94.98
2018-09-30T13:18:00.125Z,95.17
2018-09-30T13:19:01.972Z,94.49